Time;durP1;ratioP1;P1;durP2;ratioP2;P2;SDS_P1;SDS_P2;PMS_P1;PMS_P2;Temp;Humidity;BMP_temperature;BMP_pressure;BME280_temperature;BME280_humidity;BME280_pressure;Samples;Min_cycle;Max_cycle;Signal;HPM_P1;HPM_P2
2023/06/29 00:00:57;;;;;;;;;;;17.80;99.90;;;;;;7308649;19;9458;-86
2023/06/29 00:03:28;;;;;;;;;;;17.80;99.90;;;;;;7305557;19;9396;-87
2023/06/29 00:05:58;;;;;;;;;;;17.80;99.90;;;;;;7306349;19;9004;-86
2023/06/29 00:08:29;;;;;;;;;;;17.80;99.90;;;;;;7308776;19;9071;-87
2023/06/29 00:10:58;;;;;;;;;;;17.80;99.90;;;;;;7307466;19;9339;-87
2023/06/29 00:13:28;;;;;;;;;;;17.80;99.90;;;;;;7308369;19;9335;-87
2023/06/29 00:15:57;;;;;;;;;;;17.80;99.90;;;;;;7305524;19;9190;-87
2023/06/29 00:18:32;;;;;;;;;;;17.80;99.90;;;;;;7309027;19;9566;-87
2023/06/29 00:21:03;;;;;;;;;;;17.80;99.90;;;;;;7307153;19;9144;-87
2023/06/29 00:23:34;;;;;;;;;;;17.80;99.90;;;;;;7308634;19;9353;-87
2023/06/29 00:26:03;;;;;;;;;;;17.80;99.90;;;;;;7307058;19;9415;-87
2023/06/29 00:28:32;;;;;;;;;;;17.80;99.90;;;;;;7305706;19;8944;-87
2023/06/29 00:31:02;;;;;;;;;;;17.80;99.90;;;;;;7312507;19;9384;-87
2023/06/29 00:33:34;;;;;;;;;;;17.80;99.90;;;;;;7315522;19;8944;-87
2023/06/29 00:36:03;;;;;;;;;;;17.80;99.90;;;;;;7308696;19;8948;-87
2023/06/29 00:38:32;;;;;;;;;;;17.80;99.90;;;;;;7304394;19;9188;-86
2023/06/29 00:41:01;;;;;;;;;;;17.80;99.90;;;;;;7305306;19;9282;-87
2023/06/29 00:43:30;;;;;;;;;;;17.80;99.90;;;;;;7302462;19;9257;-87
2023/06/29 00:46:02;;;;;;;;;;;17.80;99.90;;;;;;7303015;19;9267;-86
2023/06/29 00:48:33;;;;;;;;;;;17.80;99.90;;;;;;7303498;19;9444;-86
2023/06/29 00:51:03;;;;;;;;;;;17.70;99.90;;;;;;7304223;19;10123;-87
2023/06/29 00:53:32;;;;;;;;;;;17.70;99.90;;;;;;7305352;19;9421;-86
2023/06/29 00:56:04;;;;;;;;;;;17.70;99.90;;;;;;7306883;19;8945;-87
2023/06/29 00:58:34;;;;;;;;;;;17.70;99.90;;;;;;7305123;19;9350;-87
2023/06/29 01:01:03;;;;;;;;;;;17.70;99.90;;;;;;7306807;19;8944;-87
2023/06/29 01:03:35;;;;;;;;;;;17.70;99.90;;;;;;7304991;19;9232;-86
2023/06/29 01:06:11;;;;;;;;;;;17.70;99.90;;;;;;7305306;19;9457;-87
2023/06/29 01:08:47;;;;;;;;;;;17.70;99.90;;;;;;7306692;19;9442;-87
2023/06/29 01:11:18;;;;;;;;;;;17.70;99.90;;;;;;7307218;19;9261;-87
2023/06/29 01:13:50;;;;;;;;;;;17.60;99.90;;;;;;7319972;19;10086;-87
2023/06/29 01:16:20;;;;;;;;;;;17.60;99.90;;;;;;7316405;19;9102;-86
2023/06/29 01:18:55;;;;;;;;;;;17.60;99.90;;;;;;7313049;19;8944;-87
2023/06/29 01:21:27;;;;;;;;;;;17.60;99.90;;;;;;7305633;19;9589;-87
2023/06/29 01:24:00;;;;;;;;;;;17.60;99.90;;;;;;7307135;19;9255;-87
2023/06/29 01:26:32;;;;;;;;;;;17.60;99.90;;;;;;7306128;19;9307;-87
2023/06/29 01:29:01;;;;;;;;;;;17.60;99.90;;;;;;7303374;19;9283;-87
2023/06/29 01:31:31;;;;;;;;;;;17.60;99.90;;;;;;7304186;19;9251;-86
2023/06/29 01:34:00;;;;;;;;;;;17.60;99.90;;;;;;7306486;19;9301;-87
2023/06/29 01:36:39;;;;;;;;;;;17.60;99.90;;;;;;7303349;19;10087;-87
2023/06/29 01:39:16;;;;;;;;;;;17.60;99.90;;;;;;7305442;19;10150;-87
2023/06/29 01:41:50;;;;;;;;;;;17.60;99.90;;;;;;7305213;19;9225;-86
2023/06/29 01:44:20;;;;;;;;;;;17.60;99.90;;;;;;7301582;19;9555;-87
2023/06/29 01:46:51;;;;;;;;;;;17.60;99.90;;;;;;7299231;19;10950;-87
2023/06/29 01:49:20;;;;;;;;;;;17.60;99.90;;;;;;7299403;19;9285;-86
2023/06/29 01:51:49;;;;;;;;;;;17.70;99.90;;;;;;7300770;19;9439;-86
2023/06/29 01:54:19;;;;;;;;;;;17.60;99.90;;;;;;7302071;19;9290;-86
2023/06/29 01:56:50;;;;;;;;;;;17.60;99.90;;;;;;7300547;19;10786;-87
2023/06/29 01:59:19;;;;;;;;;;;17.60;99.90;;;;;;7302143;19;9484;-87
2023/06/29 02:01:48;;;;;;;;;;;17.60;99.90;;;;;;7303017;19;9573;-87
2023/06/29 02:04:17;;;;;;;;;;;17.60;99.90;;;;;;7303133;19;9266;-87
2023/06/29 02:06:47;;;;;;;;;;;17.60;99.90;;;;;;7304649;19;9295;-86
2023/06/29 02:09:17;;;;;;;;;;;17.60;99.90;;;;;;7302538;19;9507;-87
2023/06/29 02:11:46;;;;;;;;;;;17.60;99.90;;;;;;7301328;19;10086;-86
2023/06/29 02:14:18;;;;;;;;;;;17.60;99.90;;;;;;7307185;19;8996;-87
2023/06/29 02:16:49;;;;;;;;;;;17.60;99.90;;;;;;7300557;19;10560;-86
2023/06/29 02:19:18;;;;;;;;;;;17.70;99.90;;;;;;7305733;19;8944;-87
2023/06/29 02:21:47;;;;;;;;;;;17.70;99.90;;;;;;7300862;19;11988;-87
2023/06/29 02:24:16;;;;;;;;;;;17.70;99.90;;;;;;7303714;19;9270;-87
2023/06/29 02:26:45;;;;;;;;;;;17.70;99.90;;;;;;7302198;19;9413;-87
2023/06/29 02:29:17;;;;;;;;;;;17.70;99.90;;;;;;7303984;19;9305;-87
2023/06/29 02:31:47;;;;;;;;;;;17.70;99.90;;;;;;7302126;19;9481;-85
2023/06/29 02:34:16;;;;;;;;;;;17.70;99.90;;;;;;7302470;19;9274;-87
2023/06/29 02:36:45;;;;;;;;;;;17.70;99.90;;;;;;7300861;19;9262;-87
2023/06/29 02:39:14;;;;;;;;;;;17.70;99.90;;;;;;7303980;19;9397;-87
2023/06/29 02:41:43;;;;;;;;;;;17.70;99.90;;;;;;7302816;19;9237;-86
2023/06/29 02:44:12;;;;;;;;;;;17.70;99.90;;;;;;7303965;19;9267;-86
2023/06/29 02:46:44;;;;;;;;;;;17.80;99.90;;;;;;7298777;19;9478;-86
2023/06/29 02:49:14;;;;;;;;;;;17.80;99.90;;;;;;7299662;19;10568;-87
2023/06/29 02:51:43;;;;;;;;;;;17.70;99.90;;;;;;7301305;19;10139;-87
2023/06/29 02:54:12;;;;;;;;;;;17.80;99.90;;;;;;7304551;19;9229;-87
2023/06/29 02:56:41;;;;;;;;;;;17.80;99.90;;;;;;7303422;19;9229;-86
2023/06/29 02:59:10;;;;;;;;;;;17.80;99.90;;;;;;7305187;19;10186;-87
2023/06/29 03:01:39;;;;;;;;;;;17.80;99.90;;;;;;7301233;19;9482;-87
2023/06/29 03:04:11;;;;;;;;;;;17.80;99.90;;;;;;7315331;19;9303;-87
2023/06/29 03:06:40;;;;;;;;;;;17.80;99.90;;;;;;7305933;19;9222;-86
2023/06/29 03:09:09;;;;;;;;;;;17.80;99.90;;;;;;7302450;19;9256;-86
2023/06/29 03:11:38;;;;;;;;;;;17.80;99.90;;;;;;7303059;19;9344;-85
2023/06/29 03:14:07;;;;;;;;;;;17.80;99.90;;;;;;7307647;19;9332;-85
2023/06/29 03:16:36;;;;;;;;;;;17.80;99.90;;;;;;7303293;19;9912;-85
2023/06/29 03:19:05;;;;;;;;;;;17.80;99.90;;;;;;7309407;19;8945;-85
2023/06/29 03:21:37;;;;;;;;;;;17.80;99.90;;;;;;7303611;19;9387;-86
2023/06/29 03:24:07;;;;;;;;;;;17.80;99.90;;;;;;7307265;19;9451;-86
2023/06/29 03:26:36;;;;;;;;;;;17.80;99.90;;;;;;7305534;19;9439;-85
2023/06/29 03:29:06;;;;;;;;;;;17.80;99.90;;;;;;7306467;19;9526;-86
2023/06/29 03:31:35;;;;;;;;;;;17.80;99.90;;;;;;7306298;19;9261;-84
2023/06/29 03:34:04;;;;;;;;;;;17.80;99.90;;;;;;7307048;19;9419;-86
2023/06/29 03:36:36;;;;;;;;;;;17.70;99.90;;;;;;7304059;19;9305;-86
2023/06/29 03:39:06;;;;;;;;;;;17.80;99.90;;;;;;7304730;19;9373;-85
2023/06/29 03:41:35;;;;;;;;;;;17.80;99.90;;;;;;7304232;19;9267;-86
2023/06/29 03:44:04;;;;;;;;;;;17.80;99.90;;;;;;7303389;19;9474;-85
2023/06/29 03:46:33;;;;;;;;;;;17.90;99.90;;;;;;7303720;19;9539;-87
2023/06/29 03:49:02;;;;;;;;;;;17.90;99.90;;;;;;7309906;19;10428;-85
2023/06/29 03:51:31;;;;;;;;;;;17.90;99.90;;;;;;7306069;19;9478;-85
2023/06/29 03:54:03;;;;;;;;;;;17.90;99.90;;;;;;7309264;19;9077;-86
2023/06/29 03:56:32;;;;;;;;;;;17.90;99.90;;;;;;7307227;19;9244;-85
2023/06/29 03:59:01;;;;;;;;;;;17.90;99.90;;;;;;7308663;19;9253;-85
2023/06/29 04:01:30;;;;;;;;;;;17.90;99.90;;;;;;7306300;19;9268;-85
2023/06/29 04:04:00;;;;;;;;;;;17.90;99.90;;;;;;7308342;19;9498;-86
2023/06/29 04:06:29;;;;;;;;;;;17.90;99.90;;;;;;7308510;19;9218;-86
2023/06/29 04:08:58;;;;;;;;;;;17.90;99.90;;;;;;7310400;19;9287;-84
2023/06/29 04:11:29;;;;;;;;;;;17.90;99.90;;;;;;7307580;19;9073;-86
2023/06/29 04:13:58;;;;;;;;;;;17.90;99.90;;;;;;7308673;19;9000;-85
2023/06/29 04:16:27;;;;;;;;;;;18.00;99.90;;;;;;7305596;19;10211;-86
2023/06/29 04:18:57;;;;;;;;;;;17.90;99.90;;;;;;7310834;19;9462;-86
2023/06/29 04:21:26;;;;;;;;;;;18.00;99.90;;;;;;7303316;19;9233;-86
2023/06/29 04:23:55;;;;;;;;;;;18.10;99.90;;;;;;7308811;19;9285;-85
2023/06/29 04:26:27;;;;;;;;;;;18.10;99.90;;;;;;7306796;19;8945;-85
2023/06/29 04:29:06;;;;;;;;;;;18.10;99.90;;;;;;7307493;19;9287;-85
2023/06/29 04:31:35;;;;;;;;;;;18.20;99.90;;;;;;7306844;19;9332;-85
2023/06/29 04:34:05;;;;;;;;;;;18.20;99.90;;;;;;7305821;19;10643;-85
2023/06/29 04:36:34;;;;;;;;;;;18.30;99.90;;;;;;7304529;19;8944;-85
2023/06/29 04:39:03;;;;;;;;;;;18.30;99.90;;;;;;7307928;19;9491;-85
2023/06/29 04:41:36;;;;;;;;;;;18.30;99.90;;;;;;7306403;19;9221;-86
2023/06/29 04:44:08;;;;;;;;;;;18.30;99.90;;;;;;7304140;19;10202;-85
2023/06/29 04:46:40;;;;;;;;;;;18.40;99.90;;;;;;7301823;19;10143;-85
2023/06/29 04:49:10;;;;;;;;;;;18.40;99.90;;;;;;7305889;19;10150;-85
2023/06/29 04:51:39;;;;;;;;;;;18.40;99.90;;;;;;7304624;19;9301;-85
2023/06/29 04:54:08;;;;;;;;;;;18.50;99.90;;;;;;7303752;19;9241;-85
2023/06/29 04:56:38;;;;;;;;;;;18.50;99.90;;;;;;7303072;19;9507;-84
2023/06/29 04:59:09;;;;;;;;;;;18.50;99.90;;;;;;7303867;19;10047;-86
2023/06/29 05:01:38;;;;;;;;;;;18.50;99.90;;;;;;7301748;19;10094;-84
2023/06/29 05:04:07;;;;;;;;;;;18.50;99.90;;;;;;7303457;19;9937;-85
2023/06/29 05:06:38;;;;;;;;;;;18.50;99.90;;;;;;7301258;19;8944;-85
2023/06/29 05:09:07;;;;;;;;;;;18.50;99.90;;;;;;7303560;19;10462;-85
2023/06/29 05:11:37;;;;;;;;;;;18.50;99.90;;;;;;7300246;19;9289;-85
2023/06/29 05:14:08;;;;;;;;;;;18.60;99.90;;;;;;7305354;19;9217;-85
2023/06/29 05:16:37;;;;;;;;;;;18.60;99.90;;;;;;7304614;19;9566;-84
2023/06/29 05:19:07;;;;;;;;;;;18.60;99.90;;;;;;7306504;19;10248;-86
2023/06/29 05:21:36;;;;;;;;;;;18.60;99.90;;;;;;7303603;19;9389;-85
2023/06/29 05:24:05;;;;;;;;;;;18.60;99.90;;;;;;7303610;19;8944;-85
2023/06/29 05:26:34;;;;;;;;;;;18.60;99.90;;;;;;7303958;19;9251;-85
2023/06/29 05:29:04;;;;;;;;;;;18.60;99.90;;;;;;7305034;19;8948;-86
2023/06/29 05:31:35;;;;;;;;;;;18.70;99.90;;;;;;7290990;19;9241;-85
2023/06/29 05:34:04;;;;;;;;;;;18.70;99.90;;;;;;7300200;19;9279;-85
2023/06/29 05:36:36;;;;;;;;;;;18.70;99.90;;;;;;7302567;19;9528;-85
2023/06/29 05:39:05;;;;;;;;;;;18.80;99.90;;;;;;7305163;19;9333;-86
2023/06/29 05:41:34;;;;;;;;;;;18.90;99.90;;;;;;7302876;19;10146;-86
2023/06/29 05:44:03;;;;;;;;;;;19.00;99.90;;;;;;7304369;19;8944;-86
2023/06/29 05:46:35;;;;;;;;;;;19.10;99.90;;;;;;7303027;19;9683;-86
2023/06/29 05:49:05;;;;;;;;;;;19.20;99.90;;;;;;7304011;19;9256;-85
2023/06/29 05:51:34;;;;;;;;;;;19.30;99.90;;;;;;7302154;19;8944;-86
2023/06/29 05:54:04;;;;;;;;;;;19.40;99.90;;;;;;7303172;19;9246;-86
2023/06/29 05:56:33;;;;;;;;;;;19.40;99.90;;;;;;7305796;19;9464;-86
2023/06/29 05:59:03;;;;;;;;;;;19.50;99.90;;;;;;7303038;19;9279;-84
2023/06/29 06:01:35;;;;;;;;;;;19.50;99.90;;;;;;7298009;19;10120;-84
2023/06/29 06:04:05;;;;;;;;;;;19.60;99.90;;;;;;7304385;19;8945;-86
2023/06/29 06:06:35;;;;;;;;;;;19.60;99.90;;;;;;7299635;19;8944;-81
2023/06/29 06:09:04;;;;;;;;;;;19.60;99.90;;;;;;7297861;19;9156;-83
2023/06/29 06:11:33;;;;;;;;;;;19.70;99.90;;;;;;7297709;19;9443;-81
2023/06/29 06:14:02;;;;;;;;;;;19.80;99.90;;;;;;7302171;19;9494;-80
2023/06/29 06:16:31;;;;;;;;;;;19.90;99.90;;;;;;7302147;19;9325;-79
2023/06/29 06:19:03;;;;;;;;;;;20.00;99.90;;;;;;7306451;19;9293;-79
2023/06/29 06:21:32;;;;;;;;;;;20.10;99.90;;;;;;7301082;19;9308;-75
2023/06/29 06:24:01;;;;;;;;;;;20.10;99.90;;;;;;7294898;19;9297;-80
2023/06/29 06:26:30;;;;;;;;;;;20.10;99.90;;;;;;7296700;19;9503;-79
2023/06/29 06:28:59;;;;;;;;;;;20.10;99.90;;;;;;7298807;19;9266;-82
2023/06/29 06:31:28;;;;;;;;;;;20.10;99.90;;;;;;7294458;19;8948;-81
2023/06/29 06:33:57;;;;;;;;;;;20.30;99.90;;;;;;7296914;19;9210;-81
2023/06/29 06:36:32;;;;;;;;;;;20.30;99.90;;;;;;7302595;19;9161;-80
2023/06/29 06:39:02;;;;;;;;;;;20.30;99.90;;;;;;7304335;19;9840;-81
2023/06/29 06:41:31;;;;;;;;;;;20.40;99.90;;;;;;7294785;19;9323;-80
2023/06/29 06:44:00;;;;;;;;;;;20.50;99.90;;;;;;7296006;19;11156;-82
2023/06/29 06:46:29;;;;;;;;;;;20.60;99.90;;;;;;7305343;19;9269;-80
2023/06/29 06:48:58;;;;;;;;;;;20.60;99.90;;;;;;7306200;19;9206;-83
2023/06/29 06:51:30;;;;;;;;;;;20.70;99.90;;;;;;7301572;19;9303;-83
2023/06/29 06:53:59;;;;;;;;;;;20.70;99.90;;;;;;7308030;19;8944;-82
2023/06/29 06:56:28;;;;;;;;;;;20.90;99.90;;;;;;7303023;19;11567;-82
2023/06/29 06:58:57;;;;;;;;;;;20.90;99.90;;;;;;7304188;19;9238;-83
2023/06/29 07:01:28;;;;;;;;;;;20.90;99.90;;;;;;7304197;19;9479;-82
2023/06/29 07:03:57;;;;;;;;;;;21.00;99.90;;;;;;7305642;19;9478;-83
2023/06/29 07:06:30;;;;;;;;;;;21.00;99.90;;;;;;7305380;19;9342;-82
2023/06/29 07:09:03;;;;;;;;;;;21.00;99.90;;;;;;7305132;19;9063;-83
2023/06/29 07:11:32;;;;;;;;;;;21.10;99.90;;;;;;7300081;19;9257;-83
2023/06/29 07:14:02;;;;;;;;;;;21.10;99.90;;;;;;7303205;19;9245;-82
2023/06/29 07:16:31;;;;;;;;;;;21.00;99.90;;;;;;7306630;19;8996;-81
2023/06/29 07:19:09;;;;;;;;;;;21.20;99.90;;;;;;7306735;19;9238;-81
2023/06/29 07:21:38;;;;;;;;;;;21.10;99.90;;;;;;7300954;19;9976;-82
2023/06/29 07:24:11;;;;;;;;;;;21.00;99.90;;;;;;7305891;19;9132;-81
2023/06/29 07:26:40;;;;;;;;;;;21.00;99.90;;;;;;7301698;19;9523;-82
2023/06/29 07:29:10;;;;;;;;;;;21.00;99.90;;;;;;7307872;19;9398;-82
2023/06/29 07:31:39;;;;;;;;;;;21.00;99.90;;;;;;7300044;19;9553;-81
2023/06/29 07:34:08;;;;;;;;;;;21.20;99.90;;;;;;7303182;19;9253;-81
2023/06/29 07:36:39;;;;;;;;;;;21.30;99.90;;;;;;7300763;19;9095;-82
2023/06/29 07:39:11;;;;;;;;;;;21.20;99.90;;;;;;7306646;19;9342;-81
2023/06/29 07:41:40;;;;;;;;;;;21.20;99.90;;;;;;7302004;19;9354;-82
2023/06/29 07:44:09;;;;;;;;;;;21.10;99.90;;;;;;7300915;19;9545;-82
2023/06/29 07:46:38;;;;;;;;;;;21.00;99.90;;;;;;7305543;19;9473;-83
2023/06/29 07:49:08;;;;;;;;;;;20.90;99.90;;;;;;7304688;19;9241;-81
2023/06/29 07:51:37;;;;;;;;;;;20.90;99.90;;;;;;7302104;19;9132;-83
2023/06/29 07:54:08;;;;;;;;;;;20.80;99.90;;;;;;7304040;19;9146;-83
2023/06/29 07:56:39;;;;;;;;;;;20.70;99.90;;;;;;7303684;19;9456;-83
2023/06/29 07:59:08;;;;;;;;;;;20.70;99.90;;;;;;7304010;19;9368;-82
2023/06/29 08:01:38;;;;;;;;;;;20.60;99.90;;;;;;7301873;19;9415;-83
2023/06/29 08:04:08;;;;;;;;;;;20.60;99.90;;;;;;7306036;19;9250;-82
2023/06/29 08:06:41;;;;;;;;;;;20.60;99.90;;;;;;7298130;19;10693;-83
2023/06/29 08:09:11;;;;;;;;;;;20.60;99.90;;;;;;7306381;19;9491;-83
2023/06/29 08:11:42;;;;;;;;;;;20.70;99.90;;;;;;7303194;19;10129;-83
2023/06/29 08:14:11;;;;;;;;;;;20.70;99.90;;;;;;7306658;19;9853;-83
2023/06/29 08:16:41;;;;;;;;;;;20.70;99.90;;;;;;7304584;19;9446;-82
2023/06/29 08:19:10;;;;;;;;;;;20.70;99.90;;;;;;7311203;19;9368;-82
2023/06/29 08:21:39;;;;;;;;;;;20.80;99.90;;;;;;7310275;19;9574;-82
2023/06/29 08:24:09;;;;;;;;;;;20.90;99.90;;;;;;7306257;19;10106;-83
2023/06/29 08:26:38;;;;;;;;;;;20.90;99.90;;;;;;7300274;19;9280;-82
2023/06/29 08:29:09;;;;;;;;;;;20.90;99.90;;;;;;7297619;19;9201;-81
2023/06/29 08:31:38;;;;;;;;;;;20.80;99.90;;;;;;7299621;19;10398;-83
2023/06/29 08:34:08;;;;;;;;;;;20.90;99.90;;;;;;7298558;19;9274;-82
2023/06/29 08:36:37;;;;;;;;;;;20.90;99.90;;;;;;7300702;19;9309;-82
2023/06/29 08:39:07;;;;;;;;;;;21.00;99.90;;;;;;7302357;19;9352;-83
2023/06/29 08:41:37;;;;;;;;;;;21.10;99.90;;;;;;7296141;19;10668;-83
2023/06/29 08:44:10;;;;;;;;;;;21.20;99.90;;;;;;7301437;19;9374;-82
2023/06/29 08:46:42;;;;;;;;;;;21.30;99.90;;;;;;7300545;19;9597;-83
2023/06/29 08:49:14;;;;;;;;;;;21.50;99.90;;;;;;7304900;19;9281;-83
2023/06/29 08:51:46;;;;;;;;;;;21.70;99.90;;;;;;7297487;19;9457;-83
2023/06/29 08:54:15;;;;;;;;;;;21.80;99.90;;;;;;7307944;19;9242;-82
2023/06/29 08:56:45;;;;;;;;;;;22.00;99.90;;;;;;7303631;19;9322;-83
2023/06/29 08:59:18;;;;;;;;;;;22.10;99.90;;;;;;7304330;19;9225;-84
2023/06/29 09:01:48;;;;;;;;;;;22.10;99.90;;;;;;7292663;19;10063;-83
2023/06/29 09:04:18;;;;;;;;;;;22.10;99.90;;;;;;7299990;19;10572;-83
2023/06/29 09:06:47;;;;;;;;;;;22.00;99.90;;;;;;7295714;19;8993;-82
2023/06/29 09:09:16;;;;;;;;;;;22.10;99.90;;;;;;7304520;19;9251;-83
2023/06/29 09:11:45;;;;;;;;;;;22.10;99.90;;;;;;7300810;19;9097;-85
2023/06/29 09:14:17;;;;;;;;;;;22.00;99.90;;;;;;7302627;19;9395;-84
2023/06/29 09:16:57;;;;;;;;;;;21.80;99.90;;;;;;7297407;19;10246;-82
2023/06/29 09:19:27;;;;;;;;;;;21.70;99.90;;;;;;7304797;19;8944;-83
2023/06/29 09:21:59;;;;;;;;;;;21.70;99.90;;;;;;7299025;19;9337;-84
2023/06/29 09:24:31;;;;;;;;;;;21.80;99.90;;;;;;7302752;19;10046;-83
2023/06/29 09:27:02;;;;;;;;;;;21.80;99.90;;;;;;7301688;19;9714;-84
2023/06/29 09:29:39;;;;;;;;;;;21.90;99.90;;;;;;7301938;19;10048;-81
2023/06/29 09:32:16;;;;;;;;;;;22.00;99.90;;;;;;7296139;19;9125;-83
2023/06/29 09:34:48;;;;;;;;;;;21.90;99.90;;;;;;7303379;19;9285;-85
2023/06/29 09:37:18;;;;;;;;;;;22.10;99.90;;;;;;7301161;19;9214;-84
2023/06/29 09:40:00;;;;;;;;;;;22.10;99.90;;;;;;7302060;19;9521;-83
2023/06/29 09:42:31;;;;;;;;;;;22.20;99.90;;;;;;7301948;19;9528;-84
2023/06/29 09:45:04;;;;;;;;;;;22.40;99.90;;;;;;7301658;19;9597;-83
2023/06/29 09:47:33;;;;;;;;;;;22.40;99.90;;;;;;7303801;19;9346;-84
2023/06/29 09:50:03;;;;;;;;;;;22.50;99.90;;;;;;7302311;19;9269;-84
2023/06/29 09:52:47;;;;;;;;;;;22.60;99.90;;;;;;7297885;19;10131;-84
2023/06/29 09:55:17;;;;;;;;;;;22.60;99.90;;;;;;7299168;19;9294;-84
2023/06/29 09:57:49;;;;;;;;;;;22.60;99.90;;;;;;7295078;19;9457;-80
2023/06/29 10:00:22;;;;;;;;;;;22.70;99.90;;;;;;7302561;19;9131;-83
2023/06/29 10:02:52;;;;;;;;;;;22.70;99.90;;;;;;7293673;19;9269;-81
2023/06/29 10:05:21;;;;;;;;;;;22.60;99.90;;;;;;7309234;19;9407;-81
2023/06/29 10:07:54;;;;;;;;;;;22.40;99.90;;;;;;7303715;19;9318;-82
2023/06/29 10:10:25;;;;;;;;;;;22.40;99.90;;;;;;7305027;19;11420;-84
2023/06/29 10:12:58;;;;;;;;;;;22.30;99.90;;;;;;7299685;19;9433;-82
2023/06/29 10:15:32;;;;;;;;;;;22.30;99.90;;;;;;7301193;19;13358;-87
2023/06/29 10:18:06;;;;;;;;;;;22.10;99.90;;;;;;7300326;19;9253;-87
2023/06/29 10:20:40;;;;;;;;;;;22.10;99.90;;;;;;7310676;19;9241;-84
2023/06/29 10:23:14;;;;;;;;;;;22.20;99.90;;;;;;7306349;19;11701;-83
2023/06/29 10:25:49;;;;;;;;;;;22.30;99.90;;;;;;7304837;19;9221;-83
2023/06/29 10:28:21;;;;;;;;;;;22.50;99.90;;;;;;7305473;19;9257;-83
2023/06/29 10:30:53;;;;;;;;;;;22.70;99.90;;;;;;7305810;19;10583;-83
2023/06/29 10:33:24;;;;;;;;;;;22.80;99.90;;;;;;7301986;19;9261;-83
2023/06/29 10:36:01;;;;;;;;;;;22.80;99.90;;;;;;7307522;19;9275;-82
2023/06/29 10:38:34;;;;;;;;;;;23.00;99.90;;;;;;7324387;19;9192;-82
2023/06/29 10:41:07;;;;;;;;;;;22.80;99.90;;;;;;7307172;19;9441;-82
2023/06/29 10:43:57;;;;;;;;;;;22.70;99.90;;;;;;7307158;19;9840;-84
2023/06/29 10:46:53;;;;;;;;;;;22.70;99.90;;;;;;7306431;19;9415;-83
2023/06/29 10:49:26;;;;;;;;;;;22.60;99.90;;;;;;7305277;19;9249;-83
2023/06/29 10:51:57;;;;;;;;;;;22.60;99.90;;;;;;7303423;19;9162;-83
2023/06/29 10:54:27;;;;;;;;;;;22.70;99.90;;;;;;7307615;19;9287;-83
2023/06/29 10:57:01;;;;;;;;;;;22.60;99.90;;;;;;7305295;19;9241;-83
2023/06/29 10:59:31;;;;;;;;;;;22.60;99.90;;;;;;7306164;19;9527;-82
2023/06/29 11:02:06;;;;;;;;;;;22.60;99.90;;;;;;7304415;19;9304;-81
2023/06/29 11:04:35;;;;;;;;;;;22.60;99.90;;;;;;7305680;19;10106;-81
2023/06/29 11:07:07;;;;;;;;;;;22.60;99.90;;;;;;7304328;19;8997;-81
2023/06/29 11:09:37;;;;;;;;;;;22.60;99.90;;;;;;7307142;19;9307;-80
2023/06/29 11:12:07;;;;;;;;;;;22.60;99.90;;;;;;7304118;19;9372;-80
2023/06/29 11:14:42;;;;;;;;;;;22.40;99.90;;;;;;7304060;19;9392;-84
2023/06/29 11:17:14;;;;;;;;;;;22.60;99.90;;;;;;7307756;19;9544;-85
2023/06/29 11:19:48;;;;;;;;;;;22.60;99.90;;;;;;7313657;19;9343;-84
2023/06/29 11:22:17;;;;;;;;;;;22.70;99.90;;;;;;7306825;19;9304;-93
2023/06/29 11:24:46;;;;;;;;;;;22.60;99.90;;;;;;7313505;19;9240;-84
2023/06/29 11:27:18;;;;;;;;;;;22.50;99.90;;;;;;7307516;19;9256;-85
2023/06/29 11:29:47;;;;;;;;;;;22.40;99.90;;;;;;7308802;19;8944;-76
2023/06/29 11:32:19;;;;;;;;;;;22.40;99.90;;;;;;7308662;19;9979;-83
2023/06/29 11:34:49;;;;;;;;;;;22.40;99.90;;;;;;7306670;19;9616;-82
2023/06/29 11:37:21;;;;;;;;;;;22.50;99.90;;;;;;7305693;19;9279;-81
2023/06/29 11:39:51;;;;;;;;;;;22.60;99.90;;;;;;7307648;19;9343;-81
2023/06/29 11:42:22;;;;;;;;;;;22.60;99.90;;;;;;7307302;19;9083;-83
2023/06/29 11:44:51;;;;;;;;;;;22.60;99.90;;;;;;7309968;19;9225;-83
2023/06/29 11:47:24;;;;;;;;;;;22.60;99.90;;;;;;7312494;19;8944;-80
2023/06/29 11:49:55;;;;;;;;;;;22.60;99.90;;;;;;7309777;19;9450;-81
2023/06/29 11:52:25;;;;;;;;;;;22.60;99.90;;;;;;7305316;19;10257;-80
2023/06/29 11:54:54;;;;;;;;;;;22.60;99.90;;;;;;7307199;19;11345;-82
2023/06/29 11:57:23;;;;;;;;;;;22.60;99.90;;;;;;7295994;19;9264;-89
2023/06/29 11:59:52;;;;;;;;;;;22.50;99.90;;;;;;7301952;19;8945;-90
2023/06/29 12:02:26;;;;;;;;;;;22.50;99.90;;;;;;7302619;19;9437;-89
2023/06/29 12:04:59;;;;;;;;;;;22.40;99.90;;;;;;7300680;19;10208;-89
2023/06/29 12:07:39;;;;;;;;;;;22.50;99.90;;;;;;7302762;19;9235;-90
2023/06/29 12:10:11;;;;;;;;;;;22.40;99.90;;;;;;7306651;19;9271;-89
2023/06/29 12:12:41;;;;;;;;;;;22.50;99.90;;;;;;7304334;19;9269;-90
2023/06/29 12:15:17;;;;;;;;;;;22.50;99.90;;;;;;7305506;19;8944;-89
2023/06/29 12:17:50;;;;;;;;;;;22.60;99.90;;;;;;7299283;19;9281;-91
2023/06/29 12:20:22;;;;;;;;;;;22.60;99.90;;;;;;7307937;19;9576;-90
2023/06/29 12:22:53;;;;;;;;;;;22.70;99.90;;;;;;7301030;19;9478;-89
2023/06/29 12:25:23;;;;;;;;;;;22.80;99.90;;;;;;7305745;19;8944;-92
2023/06/29 12:27:53;;;;;;;;;;;22.90;99.90;;;;;;7305624;19;9691;-90
2023/06/29 12:30:23;;;;;;;;;;;23.00;99.90;;;;;;7307501;19;10170;-88
2023/06/29 12:32:55;;;;;;;;;;;23.10;99.90;;;;;;7304717;19;9269;-88
2023/06/29 12:35:24;;;;;;;;;;;23.20;99.90;;;;;;7306275;19;10622;-90
2023/06/29 12:37:53;;;;;;;;;;;23.30;99.90;;;;;;7305831;19;8944;-90
2023/06/29 12:40:23;;;;;;;;;;;23.40;99.90;;;;;;7308202;19;9234;-88
2023/06/29 12:42:52;;;;;;;;;;;23.30;99.90;;;;;;7305384;19;9226;-90
2023/06/29 12:45:21;;;;;;;;;;;23.40;99.90;;;;;;7307701;19;9004;-90
2023/06/29 12:47:50;;;;;;;;;;;23.40;99.90;;;;;;7305613;19;9289;-90
2023/06/29 12:50:22;;;;;;;;;;;23.40;99.90;;;;;;7306677;19;9206;-91
2023/06/29 12:52:52;;;;;;;;;;;23.50;99.90;;;;;;7306582;19;8949;-90
2023/06/29 12:55:21;;;;;;;;;;;23.60;99.90;;;;;;7306160;19;9258;-90
2023/06/29 12:57:50;;;;;;;;;;;23.60;99.90;;;;;;7306350;19;9214;-89
2023/06/29 13:00:21;;;;;;;;;;;23.60;99.90;;;;;;7308215;19;9427;-91
2023/06/29 13:02:54;;;;;;;;;;;23.70;99.90;;;;;;7303138;19;9547;-88
2023/06/29 13:05:26;;;;;;;;;;;23.70;99.90;;;;;;7303342;19;9241;-89
2023/06/29 13:07:55;;;;;;;;;;;23.70;99.90;;;;;;7305757;19;9269;-90
2023/06/29 13:10:24;;;;;;;;;;;23.70;99.90;;;;;;7306961;19;9187;-90
2023/06/29 13:12:53;;;;;;;;;;;23.90;99.90;;;;;;7305089;19;9253;-89
2023/06/29 13:15:22;;;;;;;;;;;24.20;99.90;;;;;;7308755;19;9233;-91
2023/06/29 13:17:51;;;;;;;;;;;24.40;99.90;;;;;;7303171;19;9053;-87
2023/06/29 13:20:20;;;;;;;;;;;24.70;99.90;;;;;;7311640;19;9578;-90
2023/06/29 13:22:52;;;;;;;;;;;24.80;99.90;;;;;;7306901;19;9123;-89
2023/06/29 13:25:22;;;;;;;;;;;24.90;99.90;;;;;;7307426;19;8945;-90
2023/06/29 13:27:51;;;;;;;;;;;25.10;99.90;;;;;;7309760;19;9281;-89
2023/06/29 13:30:20;;;;;;;;;;;25.10;99.90;;;;;;7319305;19;9124;-90
2023/06/29 13:32:49;;;;;;;;;;;25.00;99.90;;;;;;7314154;19;8945;-91
2023/06/29 13:35:18;;;;;;;;;;;24.70;99.90;;;;;;7307829;19;9274;-91
2023/06/29 13:37:47;;;;;;;;;;;24.60;99.90;;;;;;7304206;19;9490;-89
2023/06/29 13:40:19;;;;;;;;;;;24.40;99.90;;;;;;7305446;19;9273;-89
2023/06/29 13:42:48;;;;;;;;;;;24.20;99.90;;;;;;7304814;19;10174;-89
2023/06/29 13:45:17;;;;;;;;;;;24.10;99.90;;;;;;7304621;19;9302;-90
2023/06/29 13:47:46;;;;;;;;;;;24.00;99.90;;;;;;7304331;19;9245;-89
2023/06/29 13:50:15;;;;;;;;;;;23.90;99.90;;;;;;7302851;19;9259;-89
2023/06/29 13:52:44;;;;;;;;;;;23.90;99.90;;;;;;7301731;19;9257;-89
2023/06/29 13:55:14;;;;;;;;;;;23.80;99.90;;;;;;7304039;19;9130;-89
2023/06/29 13:57:46;;;;;;;;;;;23.70;99.90;;;;;;7303417;19;9277;-88
2023/06/29 14:00:16;;;;;;;;;;;23.70;99.90;;;;;;7305475;19;9266;-90
2023/06/29 14:02:45;;;;;;;;;;;23.60;99.90;;;;;;7299871;19;9193;-90
2023/06/29 14:05:15;;;;;;;;;;;23.60;99.90;;;;;;7302301;19;9332;-89
2023/06/29 14:07:44;;;;;;;;;;;23.50;99.90;;;;;;7303288;19;9249;-89
2023/06/29 14:10:13;;;;;;;;;;;23.50;99.90;;;;;;7305100;19;9343;-89
2023/06/29 14:12:45;;;;;;;;;;;23.50;99.90;;;;;;7300722;19;9139;-90
2023/06/29 14:15:14;;;;;;;;;;;23.50;99.90;;;;;;7303269;19;9303;-91
2023/06/29 14:17:43;;;;;;;;;;;23.60;99.90;;;;;;7303308;19;9520;-88
2023/06/29 14:20:13;;;;;;;;;;;23.60;99.90;;;;;;7305044;19;9329;-91
2023/06/29 14:22:42;;;;;;;;;;;23.70;99.90;;;;;;7301612;19;9725;-90
2023/06/29 14:25:12;;;;;;;;;;;23.80;99.90;;;;;;7301735;19;9471;-89
2023/06/29 14:27:41;;;;;;;;;;;23.80;99.90;;;;;;7301886;19;9285;-90
2023/06/29 14:30:14;;;;;;;;;;;23.90;99.90;;;;;;7305381;19;9280;-92
2023/06/29 14:32:43;;;;;;;;;;;23.90;99.90;;;;;;7300545;19;9551;-92
2023/06/29 14:35:12;;;;;;;;;;;24.00;99.90;;;;;;7303235;19;9383;-91
2023/06/29 14:37:41;;;;;;;;;;;24.10;99.90;;;;;;7304595;19;9229;-90
2023/06/29 14:40:12;;;;;;;;;;;24.20;99.90;;;;;;7305409;19;8944;-91
2023/06/29 14:42:43;;;;;;;;;;;24.40;99.90;;;;;;7304940;19;9250;-89
2023/06/29 14:45:15;;;;;;;;;;;24.50;99.60;;;;;;7304220;19;9241;-91
2023/06/29 14:47:44;;;;;;;;;;;24.60;99.60;;;;;;7300313;19;9233;-91